Time,TemperatureF,DewpointF,PressureIn,WindDirection,WindDirectionDegrees,WindSpeedMPH,WindSpeedGustMPH,Humidity,HourlyPrecipIn,Conditions,Clouds,dailyrainin,SoftwareType,DateUTC
2013-06-01 00:00:00,78.5,66.2,24.02,WNW,292,0.0,0.0,66,0.00,,,0.00,VWS V13.01,2013-06-01 04:00:00,
2013-06-01 01:00:00,76.4,66.7,24.02,WNW,292,0.0,0.0,72,0.00,,,0.00,VWS V13.01,2013-06-01 05:00:00,
2013-06-01 02:00:00,74.8,67.9,24.02,WNW,292,0.0,4.0,79,0.00,,,0.00,VWS V13.01,2013-06-01 06:00:00,
2013-06-01 03:00:00,74.5,68.3,24.02,WNW,292,0.0,4.0,81,0.00,,,0.00,VWS V13.01,2013-06-01 07:00:00,
2013-06-01 04:00:00,73.0,67.9,24.02,WNW,292,0.0,2.0,84,0.00,,,0.00,VWS V13.01,2013-06-01 08:00:00,
2013-06-01 05:00:00,71.3,67.2,24.02,WNW,292,0.0,0.0,87,0.00,,,0.00,VWS V13.01,2013-06-01 09:00:00,
2013-06-01 06:00:00,70.0,66.6,24.02,WNW,292,0.0,0.0,89,0.00,,,0.00,VWS V13.01,2013-06-01 10:00:00,
2013-06-01 07:00:00,70.5,66.8,24.02,WNW,292,0.0,5.0,88,0.00,,,0.00,VWS V13.01,2013-06-01 11:00:00,
2013-06-01 08:00:00,73.5,67.7,24.02,West,270,1.0,10.0,82,0.00,,,0.00,VWS V13.01,2013-06-01 12:00:00,
2013-06-01 09:00:00,76.0,68.7,24.02,West,270,2.0,12.0,78,0.00,,,0.00,VWS V13.01,2013-06-01 13:00:00,
2013-06-01 10:00:00,79.1,69.3,24.02,WNW,292,1.0,11.0,72,0.00,,,0.00,VWS V13.01,2013-06-01 14:00:00,
2013-06-01 11:00:00,82.3,69.4,31.42,WNW,292,1.0,9.0,65,0.00,,,0.00,VWS V13.01,2013-06-01 15:00:00,
2013-06-01 12:00:00,85.5,71.5,26.20,WNW,292,1.0,10.0,63,0.00,,,0.00,VWS V13.01,2013-06-01 16:00:00,
2013-06-01 12:44:00,85.5,71.5,26.20,WNW,292,1.0,10.0,63,0.00,,,0.00,VWS V13.01,2013-06-01 16:44:00,
2013-06-01 12:45:00,86.8,71.3,26.20,SSW,200,0.0,1.0,60,0.00,,,0.00,VWS V13.01,2013-06-01 16:45:00,
2013-06-01 12:49:00,87.0,71.9,26.20,SSW,208,1.0,5.0,61,0.00,,,0.00,VWS V13.01,2013-06-01 16:49:00,
2013-06-01 12:50:00,87.0,71.9,26.20,SSW,207,0.0,5.0,61,0.00,,,0.00,VWS V13.01,2013-06-01 16:50:00,
2013-06-01 12:54:00,87.1,71.5,26.20,SSW,197,0.0,5.0,60,0.00,,,0.00,VWS V13.01,2013-06-01 16:54:00,
2013-06-01 12:55:00,87.1,71.5,26.20,SSW,197,4.0,5.0,60,0.00,,,0.00,VWS V13.01,2013-06-01 16:55:00,
2013-06-01 12:59:00,87.1,72.0,26.20,SSE,164,0.0,5.0,61,0.00,,,0.00,VWS V13.01,2013-06-01 16:59:00,
2013-06-01 13:00:00,87.2,72.1,26.20,SSE,165,0.0,5.0,61,0.00,,,0.00,VWS V13.01,2013-06-01 17:00:00,
2013-06-01 13:04:00,87.2,71.1,26.20,WSW,240,1.0,4.0,59,0.00,,,0.00,VWS V13.01,2013-06-01 17:04:00,
2013-06-01 13:05:00,87.3,71.2,26.20,WSW,240,0.0,5.0,59,0.00,,,0.00,VWS V13.01,2013-06-01 17:05:00,
2013-06-01 13:09:00,87.2,71.1,26.20,SSW,194,8.0,8.0,59,0.00,,,0.00,VWS V13.01,2013-06-01 17:09:00,
2013-06-01 13:10:00,87.2,71.1,26.20,SSW,206,1.0,9.0,59,0.00,,,0.00,VWS V13.01,2013-06-01 17:10:00,
2013-06-01 13:11:00,87.2,71.1,26.20,South,178,0.0,9.0,59,0.00,,,0.00,VWS V13.01,2013-06-01 17:11:00,
2013-06-01 13:14:00,87.2,71.1,26.20,WNW,300,0.0,9.0,59,0.00,,,0.00,VWS V13.01,2013-06-01 17:14:00,
2013-06-01 13:15:00,87.2,71.6,26.20,WNW,299,0.0,9.0,60,0.00,,,0.00,VWS V13.01,2013-06-01 17:15:00,
2013-06-01 13:16:00,87.3,72.2,26.20,WSW,240,4.0,9.0,61,0.00,,,0.00,VWS V13.01,2013-06-01 17:16:00,
2013-06-01 13:20:00,87.4,71.8,26.20,SE,142,1.0,9.0,60,0.00,,,0.00,VWS V13.01,2013-06-01 17:20:00,
2013-06-01 13:21:00,87.4,71.8,26.20,West,275,3.0,9.0,60,0.00,,,0.00,VWS V13.01,2013-06-01 17:21:00,
2013-06-01 13:25:00,87.6,72.0,26.20,SW,234,0.0,9.0,60,0.00,,,0.00,VWS V13.01,2013-06-01 17:25:00,
2013-06-01 13:26:00,87.6,71.5,26.20,SW,234,0.0,9.0,59,0.00,,,0.00,VWS V13.01,2013-06-01 17:26:00,
2013-06-01 13:30:00,87.8,71.7,26.20,South,186,2.0,9.0,59,0.00,,,0.00,VWS V13.01,2013-06-01 17:30:00,
2013-06-01 13:31:00,87.8,71.7,26.20,SSW,200,1.0,9.0,59,0.00,,,0.00,VWS V13.01,2013-06-01 17:31:00,
2013-06-01 13:35:00,87.9,72.3,26.20,WNW,291,1.0,9.0,60,0.00,,,0.00,VWS V13.01,2013-06-01 17:35:00,
2013-06-01 13:36:00,88.0,72.4,26.20,WNW,291,1.0,9.0,60,0.00,,,0.00,VWS V13.01,2013-06-01 17:36:00,
2013-06-01 13:37:00,88.0,71.9,26.20,WNW,291,0.0,9.0,59,0.00,,,0.00,VWS V13.01,2013-06-01 17:37:00,
2013-06-01 13:40:00,88.1,71.5,26.20,South,178,5.0,9.0,58,0.00,,,0.00,VWS V13.01,2013-06-01 17:40:00,
2013-06-01 13:41:00,88.1,71.0,26.20,South,186,1.0,9.0,57,0.00,,,0.00,VWS V13.01,2013-06-01 17:41:00,
2013-06-01 13:42:00,88.1,71.5,26.20,South,186,0.0,9.0,58,0.00,,,0.00,VWS V13.01,2013-06-01 17:42:00,
2013-06-01 18:33:00,88.0,71.4,26.20,South,173,2.0,9.0,58,0.00,,,0.00,VWS V13.01,2013-06-01 22:33:00,
2013-06-01 18:38:00,88.2,68.9,31.42,WNW,291,0.0,9.0,53,0.00,,,0.00,VWS V13.01,2013-06-01 22:38:00,
2013-06-01 18:43:00,88.0,68.7,31.42,WNW,291,0.0,9.0,53,0.00,,,0.00,VWS V13.01,2013-06-01 22:43:00,
2013-06-01 18:44:00,88.0,68.7,31.42,WNW,291,0.0,9.0,53,0.00,,,0.00,VWS V13.01,2013-06-01 22:44:00,
2013-06-01 18:48:00,87.8,68.6,31.42,WNW,291,0.0,9.0,53,0.00,,,0.00,VWS V13.01,2013-06-01 22:48:00,
2013-06-01 18:49:00,87.8,69.1,31.42,WNW,291,0.0,9.0,54,0.00,,,0.00,VWS V13.01,2013-06-01 22:49:00,
2013-06-01 18:53:00,87.6,68.9,31.42,NW,312,0.0,9.0,54,0.00,,,0.00,VWS V13.01,2013-06-01 22:53:00,
2013-06-01 18:54:00,87.6,68.9,31.42,NW,311,0.0,9.0,54,0.00,,,0.00,VWS V13.01,2013-06-01 22:54:00,
2013-06-01 18:58:00,87.5,69.4,31.42,West,266,0.0,9.0,55,0.00,,,0.00,VWS V13.01,2013-06-01 22:58:00,
2013-06-01 18:59:00,87.5,68.8,31.42,West,267,0.0,9.0,54,0.00,,,0.00,VWS V13.01,2013-06-01 22:59:00,
2013-06-01 19:03:00,87.4,68.7,31.42,West,266,0.0,9.0,54,0.00,,,0.00,VWS V13.01,2013-06-01 23:03:00,
2013-06-01 19:04:00,87.4,68.7,31.42,West,266,0.0,9.0,54,0.00,,,0.00,VWS V13.01,2013-06-01 23:04:00,
2013-06-01 19:08:00,87.4,68.7,31.42,SSW,207,0.0,2.0,54,0.00,,,0.00,VWS V13.01,2013-06-01 23:08:00,
2013-06-01 19:09:00,87.4,68.7,31.42,SSW,207,0.0,2.0,54,0.00,,,0.00,VWS V13.01,2013-06-01 23:09:00,
2013-06-01 19:10:00,87.4,68.7,31.42,SSW,207,0.0,3.0,54,0.00,,,0.00,VWS V13.01,2013-06-01 23:10:00,
2013-06-01 19:14:00,87.2,69.1,31.42,SSW,207,0.0,3.0,55,0.00,,,0.00,VWS V13.01,2013-06-01 23:14:00,
2013-06-01 19:15:00,87.2,69.1,31.42,SSW,207,0.0,3.0,55,0.00,,,0.00,VWS V13.01,2013-06-01 23:15:00,
2013-06-01 19:19:00,87.1,69.5,31.42,South,169,0.0,5.0,56,0.00,,,0.00,VWS V13.01,2013-06-01 23:19:00,
2013-06-01 19:20:00,87.1,69.0,31.42,North,351,1.0,5.0,55,0.00,,,0.00,VWS V13.01,2013-06-01 23:20:00,
2013-06-01 19:24:00,87.1,69.0,31.42,WSW,240,0.0,5.0,55,0.00,,,0.00,VWS V13.01,2013-06-01 23:24:00,
2013-06-01 19:25:00,87.0,69.4,31.42,WSW,240,0.0,5.0,56,0.00,,,0.00,VWS V13.01,2013-06-01 23:25:00,
2013-06-01 19:29:00,87.0,69.4,31.42,West,277,0.0,7.0,56,0.00,,,0.00,VWS V13.01,2013-06-01 23:29:00,
2013-06-01 19:30:00,87.0,69.4,31.42,West,277,0.0,7.0,56,0.00,,,0.00,VWS V13.01,2013-06-01 23:30:00,
2013-06-01 20:17:00,85.5,69.6,31.42,West,277,0.0,4.0,59,0.00,,,0.00,VWS V13.01,2013-06-02 00:17:00,
2013-06-01 20:18:00,85.5,70.0,31.42,West,277,0.0,4.0,60,0.00,,,0.00,VWS V13.01,2013-06-02 00:18:00,
2013-06-01 20:22:00,85.4,69.9,32.35,West,277,0.0,4.0,60,0.00,,,0.00,VWS V13.01,2013-06-02 00:22:00,
2013-06-01 20:23:00,85.4,69.9,32.35,West,277,0.0,4.0,60,0.00,,,0.00,VWS V13.01,2013-06-02 00:23:00,
2013-06-01 20:24:00,85.4,69.9,32.35,West,277,1.0,4.0,60,0.00,,,0.00,VWS V13.01,2013-06-02 00:24:00,
2013-06-01 20:28:00,85.3,69.8,32.35,West,277,0.0,4.0,60,0.00,,,0.00,VWS V13.01,2013-06-02 00:28:00,
2013-06-01 20:33:00,85.1,70.2,32.35,West,277,0.0,4.0,61,0.00,,,0.00,VWS V13.01,2013-06-02 00:33:00,
2013-06-01 20:34:00,85.0,70.1,32.35,West,277,0.0,4.0,61,0.00,,,0.00,VWS V13.01,2013-06-02 00:34:00,
2013-06-01 20:35:00,85.0,70.1,32.35,West,277,0.0,4.0,61,0.00,,,0.00,VWS V13.01,2013-06-02 00:35:00,
2013-06-01 20:38:00,84.9,70.0,32.35,West,277,0.0,4.0,61,0.00,,,0.00,VWS V13.01,2013-06-02 00:38:00,
2013-06-01 20:39:00,84.8,69.9,32.35,West,277,0.0,4.0,61,0.00,,,0.00,VWS V13.01,2013-06-02 00:39:00,
2013-06-01 20:40:00,84.8,69.9,32.35,West,277,0.0,4.0,61,0.00,,,0.00,VWS V13.01,2013-06-02 00:40:00,
2013-06-01 20:44:00,84.7,69.8,32.35,West,277,0.0,4.0,61,0.00,,,0.00,VWS V13.01,2013-06-02 00:44:00,
2013-06-01 20:45:00,84.7,69.8,32.35,West,277,0.0,4.0,61,0.00,,,0.00,VWS V13.01,2013-06-02 00:45:00,
2013-06-01 20:47:00,84.6,69.7,32.35,West,277,0.0,4.0,61,0.00,,,0.00,VWS V13.01,2013-06-02 00:47:00,
2013-06-01 20:49:00,84.6,69.7,32.35,West,277,0.0,4.0,61,0.00,,,0.00,VWS V13.01,2013-06-02 00:49:00,
2013-06-01 20:50:00,84.5,70.1,32.35,West,277,0.0,4.0,62,0.00,,,0.00,VWS V13.01,2013-06-02 00:50:00,
2013-06-01 20:52:00,84.5,70.1,32.35,West,277,0.0,4.0,62,0.00,,,0.00,VWS V13.01,2013-06-02 00:52:00,
2013-06-01 20:54:00,84.5,70.1,32.35,West,277,0.0,4.0,62,0.00,,,0.00,VWS V13.01,2013-06-02 00:54:00,
2013-06-01 20:56:00,84.4,70.0,32.35,West,277,0.0,4.0,62,0.00,,,0.00,VWS V13.01,2013-06-02 00:56:00,
2013-06-01 20:57:00,84.4,70.0,32.35,West,277,0.0,4.0,62,0.00,,,0.00,VWS V13.01,2013-06-02 00:57:00,
2013-06-01 20:59:00,84.3,69.9,32.35,West,277,0.0,4.0,62,0.00,,,0.00,VWS V13.01,2013-06-02 00:59:00,
2013-06-01 21:01:00,84.3,69.9,32.35,West,277,0.0,4.0,62,0.00,,,0.00,VWS V13.01,2013-06-02 01:01:00,
2013-06-01 21:03:00,84.2,69.8,32.35,West,277,0.0,4.0,62,0.00,,,0.00,VWS V13.01,2013-06-02 01:03:00,
2013-06-01 21:04:00,84.1,70.2,32.35,West,277,0.0,0.0,63,0.00,,,0.00,VWS V13.01,2013-06-02 01:04:00,
2013-06-01 21:07:00,84.0,70.5,32.35,West,277,0.0,0.0,64,0.00,,,0.00,VWS V13.01,2013-06-02 01:07:00,
2013-06-01 21:08:00,84.0,70.5,32.35,West,277,0.0,0.0,64,0.00,,,0.00,VWS V13.01,2013-06-02 01:08:00,
2013-06-01 21:09:00,83.9,70.4,32.35,West,277,0.0,0.0,64,0.00,,,0.00,VWS V13.01,2013-06-02 01:09:00,
2013-06-01 21:13:00,83.8,71.2,32.35,West,277,0.0,0.0,66,0.00,,,0.00,VWS V13.01,2013-06-02 01:13:00,
2013-06-01 21:14:00,83.7,71.1,32.35,West,277,0.0,0.0,66,0.00,,,0.00,VWS V13.01,2013-06-02 01:14:00,
2013-06-01 21:15:00,83.7,71.1,32.35,West,277,0.0,0.0,66,0.00,,,0.00,VWS V13.01,2013-06-02 01:15:00,
2013-06-01 22:24:00,80.7,71.2,24.02,West,277,0.0,4.0,73,0.00,,,0.00,VWS V13.01,2013-06-02 02:24:00,
2013-06-01 22:28:00,80.6,71.6,24.02,West,277,1.0,4.0,74,0.00,,,0.00,VWS V13.01,2013-06-02 02:28:00,
2013-06-01 22:35:00,80.5,71.5,24.02,West,277,0.0,4.0,74,0.00,,,0.00,VWS V13.01,2013-06-02 02:35:00,